Time;durP1;ratioP1;P1;durP2;ratioP2;P2;SDS_P1;SDS_P2;PMS_P1;PMS_P2;Temp;Humidity;BMP_temperature;BMP_pressure;BME280_temperature;BME280_humidity;BME280_pressure;Samples;Min_cycle;Max_cycle;Signal;HPM_P1;HPM_P2
2022/10/28 00:01:31;;;;;;;;;;;;;;;26.17;46.96;95122.69;5028591;28;10353;-62
2022/10/28 00:04:12;;;;;;;;;;;;;;;26.17;46.97;95117.19;5013643;28;6867;-61
2022/10/28 00:06:50;;;;;;;;;;;;;;;26.15;46.89;95114.19;5014161;28;7246;-61
2022/10/28 00:09:39;;;;;;;;;;;;;;;26.16;46.39;95112.19;5016237;28;7236;-61
2022/10/28 00:12:16;;;;;;;;;;;;;;;26.16;46.73;95112.91;5015773;28;7368;-61
2022/10/28 00:14:51;;;;;;;;;;;;;;;26.16;46.31;95120.44;4996765;28;7272;-61
2022/10/28 00:17:37;;;;;;;;;;;;;;;26.14;47.11;95120.94;5000166;28;7652;-61
2022/10/28 00:20:14;;;;;;;;;;;;;;;26.16;47.14;95118.44;5015727;28;7357;-61
2022/10/28 00:22:50;;;;;;;;;;;;;;;26.16;46.82;95117.69;5032696;28;7336;-61
2022/10/28 00:25:29;;;;;;;;;;;;;;;26.16;46.49;95112.91;5032738;28;8857;-61
2022/10/28 00:27:58;;;;;;;;;;;;;;;26.14;46.88;95115.41;5012956;28;7339;-62
2022/10/28 00:30:23;;;;;;;;;;;;;;;26.14;46.43;95118.16;4996462;28;7099;-61
2022/10/28 00:32:49;;;;;;;;;;;;;;;26.13;46.20;95118.69;4997985;28;7014;-61
2022/10/28 00:35:16;;;;;;;;;;;;;;;26.15;46.29;95125.22;5016782;28;7220;-61
2022/10/28 00:37:45;;;;;;;;;;;;;;;26.14;46.29;95126.44;5016700;28;7154;-61
2022/10/28 00:40:23;;;;;;;;;;;;;;;26.15;46.92;95116.19;5016817;28;8740;-61
2022/10/28 00:42:55;;;;;;;;;;;;;;;26.14;46.38;95118.16;5012837;28;6978;-61
2022/10/28 00:45:23;;;;;;;;;;;;;;;26.12;46.37;95115.16;4997087;28;7237;-62
2022/10/28 00:47:57;;;;;;;;;;;;;;;26.11;46.81;95115.66;5014114;28;9087;-61
2022/10/28 00:50:28;;;;;;;;;;;;;;;26.11;46.49;95110.91;5031961;28;8713;-62
2022/10/28 00:53:06;;;;;;;;;;;;;;;26.11;46.65;95110.91;5016888;28;7331;-61
2022/10/28 00:55:37;;;;;;;;;;;;;;;26.10;46.49;95109.38;5016019;28;7235;-61
2022/10/28 00:58:07;;;;;;;;;;;;;;;26.10;46.31;95117.66;5015086;28;8587;-61
2022/10/28 01:00:33;;;;;;;;;;;;;;;26.10;46.71;95120.41;5014614;28;9339;-61
2022/10/28 01:02:59;;;;;;;;;;;;;;;26.12;46.16;95125.47;5025508;28;6915;-61
2022/10/28 01:05:31;;;;;;;;;;;;;;;26.11;46.30;95118.41;5014725;28;7381;-61
2022/10/28 01:08:08;;;;;;;;;;;;;;;26.11;46.58;95121.94;5013718;28;7235;-62
2022/10/28 01:11:21;;;;;;;;;;;;;;;26.10;46.39;95125.16;5015167;28;10196;-62
2022/10/28 01:13:57;;;;;;;;;;;;;;;26.09;46.87;95107.13;4996994;28;7272;-61
2022/10/28 01:17:09;;;;;;;;;;;;;;;26.09;47.01;95107.13;4995526;28;9349;-62
2022/10/28 01:20:12;;;;;;;;;;;;;;;26.08;46.93;95111.91;4994354;28;7264;-61
2022/10/28 01:22:52;;;;;;;;;;;;;;;26.08;46.91;95111.09;4982940;28;9430;-61
2022/10/28 01:25:46;;;;;;;;;;;;;;;26.08;46.16;95108.34;4996214;28;7268;-61
2022/10/28 01:28:21;;;;;;;;;;;;;;;26.07;46.49;95101.34;4991677;28;9468;-61
2022/10/28 01:31:01;;;;;;;;;;;;;;;26.07;46.14;95098.59;4994210;28;7248;-61
2022/10/28 01:33:39;;;;;;;;;;;;;;;26.08;46.54;95109.13;4994102;28;7536;-61
2022/10/28 01:36:11;;;;;;;;;;;;;;;26.07;46.65;95112.38;4978252;28;9115;-62
2022/10/28 01:39:05;;;;;;;;;;;;;;;26.05;46.57;95107.34;4989913;28;9050;-62
2022/10/28 01:41:50;;;;;;;;;;;;;;;26.05;46.95;95112.88;4977780;28;9536;-61
2022/10/28 01:44:19;;;;;;;;;;;;;;;26.06;47.01;95102.56;4993990;28;7317;-61
2022/10/28 01:46:51;;;;;;;;;;;;;;;26.05;46.88;95101.09;5002892;28;7081;-61
2022/10/28 01:49:45;;;;;;;;;;;;;;;26.05;46.49;95109.34;5010023;28;7436;-61
2022/10/28 01:52:28;;;;;;;;;;;;;;;26.03;46.15;95109.09;4994841;28;9397;-61
2022/10/28 01:55:32;;;;;;;;;;;;;;;26.04;46.67;95105.84;5014480;28;7028;-61
2022/10/28 01:58:02;;;;;;;;;;;;;;;26.03;46.33;95093.28;4997066;28;7311;-61
2022/10/28 02:00:49;;;;;;;;;;;;;;;26.04;46.49;95102.31;5012613;28;7364;-61
2022/10/28 02:03:26;;;;;;;;;;;;;;;26.02;46.80;95099.31;4997106;28;7206;-62
2022/10/28 02:06:04;;;;;;;;;;;;;;;26.02;46.42;95100.06;4996863;28;7092;-61
2022/10/28 02:09:08;;;;;;;;;;;;;;;26.02;46.89;95089.03;4996489;28;7337;-62
2022/10/28 02:11:53;;;;;;;;;;;;;;;26.02;46.92;95094.56;4990262;28;7002;-61
2022/10/28 02:15:00;;;;;;;;;;;;;;;26.01;46.43;95095.78;4957722;28;7526;-61
2022/10/28 02:18:29;;;;;;;;;;;;;;;26.01;46.46;95086.78;4957611;28;7075;-61
2022/10/28 02:21:39;;;;;;;;;;;;;;;26.01;46.80;95089.56;4916254;29;7325;-61
2022/10/28 02:24:53;;;;;;;;;;;;;;;26.01;46.69;95087.53;5090768;27;7233;-59
2022/10/28 02:27:29;;;;;;;;;;;;;;;26.01;46.84;95076.50;5055438;28;7929;-59
2022/10/28 02:30:09;;;;;;;;;;;;;;;26.00;46.17;95088.03;5071931;28;7212;-59
2022/10/28 02:32:57;;;;;;;;;;;;;;;25.99;46.14;95087.28;5069505;28;9760;-59
2022/10/28 02:35:37;;;;;;;;;;;;;;;25.97;46.32;95084.25;5070004;28;6991;-60
2022/10/28 02:38:18;;;;;;;;;;;;;;;25.98;46.70;95085.78;5069608;28;7267;-59
2022/10/28 02:40:53;;;;;;;;;;;;;;;25.97;46.50;95089.78;5069672;28;7042;-60
2022/10/28 02:43:24;;;;;;;;;;;;;;;25.98;46.79;95096.81;5059367;28;7267;-59
2022/10/28 02:46:02;;;;;;;;;;;;;;;25.97;46.55;95100.03;5049142;28;9456;-59
2022/10/28 02:48:55;;;;;;;;;;;;;;;25.97;46.23;95100.81;5049529;28;7741;-59
2022/10/28 02:51:32;;;;;;;;;;;;;;;25.95;46.53;95095.03;5049227;28;9497;-59
2022/10/28 02:54:21;;;;;;;;;;;;;;;25.97;46.20;95105.56;5050160;28;9312;-59
2022/10/28 02:57:18;;;;;;;;;;;;;;;25.95;46.39;95108.81;5048808;28;9024;-60
2022/10/28 03:00:23;;;;;;;;;;;;;;;25.97;46.44;95108.31;5044898;28;7215;-59
2022/10/28 03:02:50;;;;;;;;;;;;;;;25.96;46.33;95102.06;4984170;28;7360;-60
2022/10/28 03:05:17;;;;;;;;;;;;;;;25.95;46.04;95108.81;4961315;28;7597;-59
2022/10/28 03:07:51;;;;;;;;;;;;;;;25.96;46.60;95110.34;4952780;28;9301;-59
2022/10/28 03:10:17;;;;;;;;;;;;;;;25.96;46.53;95104.06;4969237;28;9088;-59
2022/10/28 03:12:44;;;;;;;;;;;;;;;25.95;46.87;95102.53;4952560;28;7238;-60
2022/10/28 03:15:11;;;;;;;;;;;;;;;25.96;46.57;95104.06;4952719;28;7197;-59
2022/10/28 03:18:06;;;;;;;;;;;;;;;25.95;46.93;95114.31;4968707;28;7427;-59
2022/10/28 03:20:33;;;;;;;;;;;;;;;25.96;46.55;95104.06;4929956;29;7230;-60
2022/10/28 03:22:59;;;;;;;;;;;;;;;25.95;46.68;95111.56;4914240;29;9104;-59
2022/10/28 03:25:25;;;;;;;;;;;;;;;25.93;46.45;95105.03;4930306;29;8707;-59
2022/10/28 03:27:51;;;;;;;;;;;;;;;25.93;46.38;95110.56;4899421;29;7915;-60
2022/10/28 03:30:17;;;;;;;;;;;;;;;25.93;46.49;95111.31;4911217;29;7199;-59
2022/10/28 03:32:44;;;;;;;;;;;;;;;25.92;46.75;95114.56;4911212;29;9727;-60
2022/10/28 03:35:22;;;;;;;;;;;;;;;25.91;46.04;95105.53;4906134;29;9399;-60
2022/10/28 03:38:20;;;;;;;;;;;;;;;25.93;46.35;95100.28;4963449;28;10425;-59
2022/10/28 03:41:04;;;;;;;;;;;;;;;25.93;46.73;95094.00;4937105;28;7375;-60
2022/10/28 03:43:30;;;;;;;;;;;;;;;25.91;46.71;95097.28;4955314;28;8480;-59
2022/10/28 03:46:04;;;;;;;;;;;;;;;25.90;46.69;95090.25;4955019;28;9703;-59
2022/10/28 03:48:31;;;;;;;;;;;;;;;25.93;46.35;95089.25;4955822;28;7274;-60
2022/10/28 03:51:17;;;;;;;;;;;;;;;25.92;46.56;95087.00;4955492;28;9003;-59
2022/10/28 03:53:56;;;;;;;;;;;;;;;25.90;46.23;95084.00;4935439;29;7268;-60
2022/10/28 03:56:22;;;;;;;;;;;;;;;25.90;46.77;95081.97;4955258;28;6943;-59
2022/10/28 03:58:56;;;;;;;;;;;;;;;25.89;46.65;95074.97;4997140;28;9383;-59
2022/10/28 04:01:35;;;;;;;;;;;;;;;25.92;46.66;95082.25;4997077;28;7041;-59
2022/10/28 04:04:01;;;;;;;;;;;;;;;25.90;46.32;95084.00;4996537;28;9293;-60
2022/10/28 04:06:38;;;;;;;;;;;;;;;25.90;46.68;95073.72;5006179;28;7986;-60
2022/10/28 04:09:04;;;;;;;;;;;;;;;25.90;46.48;95070.94;4993030;28;8726;-59
2022/10/28 04:11:30;;;;;;;;;;;;;;;25.92;46.52;95070.47;4976013;28;7604;-59
2022/10/28 04:13:59;;;;;;;;;;;;;;;25.91;46.69;95075.22;4975881;28;7239;-59
2022/10/28 04:16:27;;;;;;;;;;;;;;;25.92;46.33;95071.25;5011839;28;7555;-59
2022/10/28 04:18:53;;;;;;;;;;;;;;;25.91;45.95;95072.47;5048855;28;9329;-59
2022/10/28 04:21:22;;;;;;;;;;;;;;;25.90;46.05;95073.72;5047231;28;7208;-59
2022/10/28 04:23:48;;;;;;;;;;;;;;;25.90;46.41;95073.72;5033464;28;10130;-59
2022/10/28 04:26:14;;;;;;;;;;;;;;;25.91;46.41;95079.97;5033545;28;7105;-59
2022/10/28 04:28:42;;;;;;;;;;;;;;;25.90;46.44;95078.50;5032725;28;8315;-59
2022/10/28 04:31:11;;;;;;;;;;;;;;;25.89;46.66;95076.97;5031465;28;8655;-59
2022/10/28 04:33:42;;;;;;;;;;;;;;;25.89;46.26;95085.25;5017003;28;7146;-60
2022/10/28 04:36:09;;;;;;;;;;;;;;;25.90;45.94;95084.00;5049153;28;7237;-60
2022/10/28 04:38:35;;;;;;;;;;;;;;;25.90;45.88;95086.75;5047332;28;8960;-59
2022/10/28 04:41:01;;;;;;;;;;;;;;;25.90;46.02;95086.75;5027191;28;7218;-59
2022/10/28 04:43:29;;;;;;;;;;;;;;;25.89;46.49;95088.00;5023105;28;7647;-59
2022/10/28 04:45:55;;;;;;;;;;;;;;;25.86;46.03;95094.50;5030744;28;8537;-59
2022/10/28 04:48:25;;;;;;;;;;;;;;;25.84;46.17;95088.72;5032920;28;9222;-59
2022/10/28 04:50:52;;;;;;;;;;;;;;;25.85;46.31;95088.25;5012033;28;10148;-59
2022/10/28 04:53:22;;;;;;;;;;;;;;;25.84;45.98;95085.97;5018815;28;7571;-62
2022/10/28 04:56:08;;;;;;;;;;;;;;;25.84;46.53;95085.97;5025147;28;8223;-59
2022/10/28 04:59:02;;;;;;;;;;;;;;;25.84;46.21;95094.22;5035534;28;7270;-59
2022/10/28 05:01:34;;;;;;;;;;;;;;;25.82;46.46;95099.47;5024303;28;8905;-59
2022/10/28 05:04:15;;;;;;;;;;;;;;;25.80;46.96;95099.22;5018756;28;9163;-59
2022/10/28 05:06:57;;;;;;;;;;;;;;;25.80;45.82;95090.97;5034226;28;7013;-59
2022/10/28 05:09:23;;;;;;;;;;;;;;;25.78;46.28;95087.94;5032104;28;7103;-59
2022/10/28 05:11:56;;;;;;;;;;;;;;;25.78;46.46;95088.72;5033606;28;7305;-60
2022/10/28 05:14:23;;;;;;;;;;;;;;;25.77;46.00;95078.94;5047347;28;7222;-59
2022/10/28 05:17:00;;;;;;;;;;;;;;;25.80;46.80;95091.72;5040008;28;7763;-59
2022/10/28 05:19:35;;;;;;;;;;;;;;;25.82;46.74;95089.22;5028292;28;7346;-59
2022/10/28 05:22:33;;;;;;;;;;;;;;;25.84;45.71;95085.97;5016338;28;7234;-59
2022/10/28 05:24:59;;;;;;;;;;;;;;;25.85;45.76;95093.75;4956872;28;7074;-59
2022/10/28 05:27:24;;;;;;;;;;;;;;;25.84;46.12;95088.72;4964735;28;7133;-59
2022/10/28 05:29:53;;;;;;;;;;;;;;;25.81;46.20;95076.72;4965633;28;9041;-59
2022/10/28 05:32:19;;;;;;;;;;;;;;;25.79;46.81;95068.19;4966823;28;7231;-59
2022/10/28 05:34:49;;;;;;;;;;;;;;;25.79;46.30;95064.66;4964858;28;7435;-60
2022/10/28 05:37:16;;;;;;;;;;;;;;;25.75;46.29;95064.88;4955402;28;7356;-60
2022/10/28 05:39:44;;;;;;;;;;;;;;;25.71;47.32;95069.88;4972109;28;7345;-60
2022/10/28 05:42:25;;;;;;;;;;;;;;;25.68;47.03;95065.38;4950715;28;9003;-59
2022/10/28 05:44:53;;;;;;;;;;;;;;;25.69;47.23;95064.13;4964330;28;9694;-60
2022/10/28 05:47:19;;;;;;;;;;;;;;;25.71;47.42;95061.63;4957839;28;7230;-59
2022/10/28 05:49:47;;;;;;;;;;;;;;;25.72;47.43;95063.16;4965742;28;7178;-58
2022/10/28 05:52:14;;;;;;;;;;;;;;;25.72;47.25;95063.16;4957828;28;7254;-59
2022/10/28 05:54:48;;;;;;;;;;;;;;;25.69;47.22;95069.63;4955439;28;7240;-59
2022/10/28 05:57:25;;;;;;;;;;;;;;;25.68;47.94;95072.91;4970610;28;7274;-59
2022/10/28 05:59:51;;;;;;;;;;;;;;;25.65;47.48;95077.38;4954701;28;7545;-59
2022/10/28 06:02:24;;;;;;;;;;;;;;;25.66;47.64;95072.63;5005108;28;8460;-59
2022/10/28 06:04:51;;;;;;;;;;;;;;;25.63;47.49;95079.88;5014453;28;7346;-59
2022/10/28 06:07:20;;;;;;;;;;;;;;;25.66;47.66;95086.41;5007997;28;6999;-59
2022/10/28 06:09:51;;;;;;;;;;;;;;;25.62;47.28;95092.13;5009298;28;9760;-59
2022/10/28 06:12:17;;;;;;;;;;;;;;;25.62;47.56;95091.41;5021414;28;6988;-59
2022/10/28 06:14:44;;;;;;;;;;;;;;;25.56;48.13;95082.34;5008149;28;7240;-59
2022/10/28 06:17:19;;;;;;;;;;;;;;;25.59;47.77;95095.91;5024773;28;7258;-59
2022/10/28 06:19:45;;;;;;;;;;;;;;;25.58;48.19;95099.88;5018471;28;7917;-60
2022/10/28 06:22:22;;;;;;;;;;;;;;;25.61;47.82;95112.69;5009810;28;9790;-61
2022/10/28 06:24:50;;;;;;;;;;;;;;;25.63;47.28;95109.44;5049039;28;7085;-61
2022/10/28 06:27:16;;;;;;;;;;;;;;;25.66;46.98;95113.97;5064508;28;7549;-61
2022/10/28 06:29:44;;;;;;;;;;;;;;;25.67;47.26;95121.72;5055421;28;7356;-61
2022/10/28 06:32:12;;;;;;;;;;;;;;;25.69;47.31;95119.22;5069038;28;7020;-61
2022/10/28 06:34:49;;;;;;;;;;;;;;;25.68;46.81;95108.72;5074693;28;7659;-61
2022/10/28 06:37:19;;;;;;;;;;;;;;;25.69;47.23;95127.50;5064024;28;8506;-61
2022/10/28 06:39:50;;;;;;;;;;;;;;;25.70;47.00;95122.75;5067889;28;7350;-61
2022/10/28 06:42:21;;;;;;;;;;;;;;;25.70;47.10;95120.75;5060608;28;7163;-61
2022/10/28 06:44:58;;;;;;;;;;;;;;;25.70;47.43;95126.25;5050197;28;7798;-61
2022/10/28 06:47:30;;;;;;;;;;;;;;;25.72;46.95;95128.50;5048749;28;8716;-61
2022/10/28 06:50:03;;;;;;;;;;;;;;;25.71;47.11;95125.00;5052121;28;7055;-61
2022/10/28 06:52:29;;;;;;;;;;;;;;;25.72;47.41;95126.50;5067806;28;7235;-61
2022/10/28 06:55:06;;;;;;;;;;;;;;;25.72;47.40;95128.50;5042764;28;7539;-61
2022/10/28 06:57:43;;;;;;;;;;;;;;;25.70;47.29;95118.00;5041846;28;8730;-61
2022/10/28 07:00:14;;;;;;;;;;;;;;;25.72;47.43;95125.75;5070493;28;8347;-61
2022/10/28 07:02:45;;;;;;;;;;;;;;;25.71;47.36;95127.75;5071413;28;10500;-60
2022/10/28 07:05:13;;;;;;;;;;;;;;;25.66;46.69;95130.50;5040353;28;6976;-61
2022/10/28 07:07:41;;;;;;;;;;;;;;;25.68;47.40;95150.78;5067588;28;7271;-61
2022/10/28 07:10:08;;;;;;;;;;;;;;;25.66;47.22;95144.25;5069676;28;7255;-61
2022/10/28 07:12:34;;;;;;;;;;;;;;;25.67;47.45;95140.25;5064258;28;7189;-61
2022/10/28 07:15:00;;;;;;;;;;;;;;;25.68;47.04;95134.25;5070195;28;9090;-60
2022/10/28 07:17:27;;;;;;;;;;;;;;;25.66;47.29;95131.25;5053008;28;7284;-61
2022/10/28 07:19:58;;;;;;;;;;;;;;;25.67;46.97;95127.22;5067980;28;9172;-60
2022/10/28 07:22:24;;;;;;;;;;;;;;;25.64;47.27;95131.00;5078761;28;7486;-61
2022/10/28 07:24:49;;;;;;;;;;;;;;;25.63;47.30;95128.72;5070406;28;7206;-61
2022/10/28 07:27:15;;;;;;;;;;;;;;;25.64;47.28;95128.25;5052601;28;9535;-61
2022/10/28 07:29:41;;;;;;;;;;;;;;;25.64;46.94;95136.50;5051518;28;8815;-61
2022/10/28 07:32:11;;;;;;;;;;;;;;;25.65;47.29;95140.75;5062480;28;9160;-61
2022/10/28 07:34:37;;;;;;;;;;;;;;;25.66;46.77;95142.28;5048427;28;7406;-60
2022/10/28 07:37:05;;;;;;;;;;;;;;;25.66;47.34;95142.28;5053349;28;7407;-60
2022/10/28 07:39:31;;;;;;;;;;;;;;;25.66;46.61;95145.03;5049539;28;9656;-61
2022/10/28 07:42:00;;;;;;;;;;;;;;;25.67;47.33;95140.25;5044930;28;7164;-61
2022/10/28 07:44:30;;;;;;;;;;;;;;;25.67;46.57;95137.50;5066260;28;9446;-60
2022/10/28 07:46:56;;;;;;;;;;;;;;;25.69;46.97;95146.00;5048745;28;9154;-60
2022/10/28 07:49:27;;;;;;;;;;;;;;;25.67;47.16;95132.75;5051907;28;7985;-60
2022/10/28 07:51:53;;;;;;;;;;;;;;;25.68;47.14;95133.50;5050602;28;8260;-60
2022/10/28 07:54:25;;;;;;;;;;;;;;;25.65;47.02;95143.50;5070080;28;8307;-60
2022/10/28 07:56:52;;;;;;;;;;;;;;;25.63;46.54;95148.75;5050005;28;7073;-61
2022/10/28 07:59:19;;;;;;;;;;;;;;;25.64;46.75;95150.28;5060494;28;7178;-61
2022/10/28 08:01:49;;;;;;;;;;;;;;;25.63;47.18;95142.47;5051975;28;9357;-61
2022/10/28 08:04:15;;;;;;;;;;;;;;;25.64;47.04;95141.25;5051103;28;7468;-61
2022/10/28 08:06:43;;;;;;;;;;;;;;;25.64;47.00;95133.75;5053177;28;7214;-61
2022/10/28 08:09:11;;;;;;;;;;;;;;;25.63;46.82;95139.72;5047945;28;7204;-61
2022/10/28 08:11:39;;;;;;;;;;;;;;;25.63;46.73;95137.72;5073957;28;9089;-61
2022/10/28 08:14:12;;;;;;;;;;;;;;;25.64;47.03;95141.25;5039203;28;9363;-61
2022/10/28 08:16:38;;;;;;;;;;;;;;;25.65;46.66;95143.50;5069092;28;7645;-61
2022/10/28 08:19:06;;;;;;;;;;;;;;;25.64;46.77;95144.00;5045121;28;7261;-61
2022/10/28 08:21:32;;;;;;;;;;;;;;;25.63;46.85;95137.72;5036718;28;7154;-60
2022/10/28 08:23:58;;;;;;;;;;;;;;;25.63;47.00;95132.22;5050629;28;7087;-61
2022/10/28 08:26:29;;;;;;;;;;;;;;;25.63;46.95;95132.22;5048877;28;7215;-61
2022/10/28 08:28:55;;;;;;;;;;;;;;;25.63;46.55;95126.72;5036295;28;7193;-61
2022/10/28 08:31:23;;;;;;;;;;;;;;;25.61;46.55;95122.94;5044248;28;7336;-60
2022/10/28 08:33:49;;;;;;;;;;;;;;;25.63;46.49;95123.19;5037536;28;9241;-61
2022/10/28 08:36:27;;;;;;;;;;;;;;;25.60;47.19;95119.44;5051241;28;7073;-61
2022/10/28 08:39:03;;;;;;;;;;;;;;;25.62;46.94;95129.97;5050542;28;9392;-61
2022/10/28 08:41:58;;;;;;;;;;;;;;;25.63;47.01;95128.72;5046412;28;6964;-61
2022/10/28 08:44:46;;;;;;;;;;;;;;;25.63;47.18;95134.97;5031180;28;7404;-61
2022/10/28 08:47:20;;;;;;;;;;;;;;;25.62;46.95;95129.97;5054619;28;10447;-61
2022/10/28 08:49:56;;;;;;;;;;;;;;;25.62;46.32;95133.47;5068628;28;8740;-61
2022/10/28 08:52:54;;;;;;;;;;;;;;;25.62;46.37;95130.69;5029079;28;7228;-61
2022/10/28 08:55:28;;;;;;;;;;;;;;;25.60;46.88;95127.69;5040811;28;7215;-61
2022/10/28 08:58:05;;;;;;;;;;;;;;;25.62;47.11;95133.47;5034684;28;9081;-61
2022/10/28 09:00:54;;;;;;;;;;;;;;;25.63;46.55;95134.22;5040301;28;7447;-62
2022/10/28 09:03:36;;;;;;;;;;;;;;;25.62;46.77;95136.22;5053754;28;7192;-61
2022/10/28 09:06:09;;;;;;;;;;;;;;;25.64;46.48;95135.75;5049245;28;7043;-60
2022/10/28 09:09:14;;;;;;;;;;;;;;;25.63;46.25;95137.72;5047978;28;7265;-61
2022/10/28 09:12:34;;;;;;;;;;;;;;;25.64;46.81;95135.75;4991390;28;9086;-61
2022/10/28 09:15:31;;;;;;;;;;;;;;;25.64;46.24;95135.75;4997642;28;9029;-61
2022/10/28 09:18:18;;;;;;;;;;;;;;;25.64;46.56;95139.25;5003902;28;7234;-61
2022/10/28 09:21:17;;;;;;;;;;;;;;;25.63;47.19;95143.25;4988239;28;7263;-61
2022/10/28 09:23:53;;;;;;;;;;;;;;;25.63;47.10;95150.75;5005645;28;7520;-61
2022/10/28 09:26:36;;;;;;;;;;;;;;;25.64;46.54;95155.78;5010635;28;7449;-61
2022/10/28 09:29:34;;;;;;;;;;;;;;;25.61;46.37;95148.50;5026099;28;7438;-61
2022/10/28 09:32:35;;;;;;;;;;;;;;;25.63;46.05;95148.75;5010215;28;7270;-60
2022/10/28 09:35:37;;;;;;;;;;;;;;;25.63;46.09;95148.75;5007251;28;7206;-60
2022/10/28 09:38:17;;;;;;;;;;;;;;;25.62;46.61;95154.78;5008223;28;7172;-60
2022/10/28 09:41:37;;;;;;;;;;;;;;;25.60;46.24;95166.25;4991573;28;7560;-61
2022/10/28 09:44:51;;;;;;;;;;;;;;;25.59;47.27;95166.75;4954471;28;7175;-60
2022/10/28 09:48:04;;;;;;;;;;;;;;;25.56;46.92;95165.75;4976294;28;7248;-60
2022/10/28 09:50:43;;;;;;;;;;;;;;;25.53;46.77;95175.00;4969985;28;9208;-60
2022/10/28 09:53:37;;;;;;;;;;;;;;;25.54;46.86;95179.25;4950609;28;8294;-60
2022/10/28 09:56:16;;;;;;;;;;;;;;;25.56;47.21;95173.25;4971046;28;9169;-60
2022/10/28 09:59:01;;;;;;;;;;;;;;;25.58;46.74;95170.78;4969722;28;7455;-60
2022/10/28 10:01:38;;;;;;;;;;;;;;;25.58;47.54;95168.75;4950695;28;7265;-60
2022/10/28 10:04:25;;;;;;;;;;;;;;;25.54;47.34;95182.00;4964361;28;9058;-60
2022/10/28 10:07:24;;;;;;;;;;;;;;;25.54;48.73;95178.50;4967728;28;8156;-61
2022/10/28 10:10:34;;;;;;;;;;;;;;;25.53;48.97;95177.75;4953146;28;7264;-61
2022/10/28 10:13:15;;;;;;;;;;;;;;;25.53;48.89;95180.50;4887601;29;7246;-61
2022/10/28 10:15:47;;;;;;;;;;;;;;;25.55;48.73;95169.75;4871756;29;7333;-61
2022/10/28 10:18:48;;;;;;;;;;;;;;;25.59;48.14;95186.03;4906250;29;7267;-61
2022/10/28 10:21:15;;;;;;;;;;;;;;;25.56;49.25;95182.25;4876456;29;7267;-61
2022/10/28 10:23:43;;;;;;;;;;;;;;;25.55;49.19;95182.75;4888367;29;7207;-61
2022/10/28 10:26:15;;;;;;;;;;;;;;;25.54;49.27;95190.28;4913811;29;10226;-61
2022/10/28 10:28:48;;;;;;;;;;;;;;;25.55;48.58;95186.28;4912883;29;10230;-62
2022/10/28 10:31:28;;;;;;;;;;;;;;;25.52;48.48;95181.75;4914669;29;7137;-61
2022/10/28 10:33:59;;;;;;;;;;;;;;;25.56;49.06;95181.50;4933401;29;9087;-61
2022/10/28 10:36:49;;;;;;;;;;;;;;;25.58;48.53;95176.28;4915612;29;7473;-61
2022/10/28 10:39:32;;;;;;;;;;;;;;;25.59;48.92;95178.53;4932565;29;7003;-61
2022/10/28 10:41:58;;;;;;;;;;;;;;;25.58;48.26;95179.03;4918806;29;11439;-61
2022/10/28 10:44:34;;;;;;;;;;;;;;;25.61;48.55;95181.56;4916698;28;7289;-61
2022/10/28 10:47:09;;;;;;;;;;;;;;;25.62;48.68;95166.53;4929914;28;7084;-60
2022/10/28 10:49:48;;;;;;;;;;;;;;;25.66;48.49;95169.06;4991524;28;7209;-61
2022/10/28 10:52:23;;;;;;;;;;;;;;;25.64;48.59;95161.28;5032010;28;7584;-62
2022/10/28 10:55:04;;;;;;;;;;;;;;;25.62;48.13;95152.75;5032150;28;7264;-61
2022/10/28 10:57:32;;;;;;;;;;;;;;;25.61;47.34;95153.25;5051662;28;7044;-61
2022/10/28 11:00:05;;;;;;;;;;;;;;;25.60;47.45;95149.72;5081249;28;7167;-62
2022/10/28 11:02:44;;;;;;;;;;;;;;;25.63;47.93;95153.50;5063669;28;6984;-61
2022/10/28 11:05:30;;;;;;;;;;;;;;;25.66;47.17;95147.78;5072644;28;7305;-61
2022/10/28 11:08:06;;;;;;;;;;;;;;;25.65;47.46;95146.25;5051628;28;7283;-62
2022/10/28 11:11:06;;;;;;;;;;;;;;;25.66;47.43;95147.78;5066599;28;7321;-62
2022/10/28 11:13:34;;;;;;;;;;;;;;;25.64;47.32;95149.50;5029741;28;7910;-61
2022/10/28 11:16:29;;;;;;;;;;;;;;;25.64;47.53;95135.75;5023049;28;9181;-62
2022/10/28 11:19:33;;;;;;;;;;;;;;;25.64;47.78;95130.22;5032742;28;7845;-61
2022/10/28 11:22:24;;;;;;;;;;;;;;;25.60;47.71;95133.19;5028599;28;7232;-62
2022/10/28 11:25:25;;;;;;;;;;;;;;;25.62;46.29;95136.22;5028084;28;7379;-62
2022/10/28 11:28:08;;;;;;;;;;;;;;;25.65;46.52;95129.72;4934879;29;8669;-62
2022/10/28 11:30:59;;;;;;;;;;;;;;;25.66;46.12;95125.75;4920119;29;7284;-62
2022/10/28 11:33:53;;;;;;;;;;;;;;;25.65;47.09;95117.94;4937279;28;9184;-61
2022/10/28 11:36:47;;;;;;;;;;;;;;;25.63;46.94;95120.44;4935119;29;7265;-61
2022/10/28 11:39:24;;;;;;;;;;;;;;;25.68;46.16;95119.72;4911285;29;7231;-61
2022/10/28 11:42:16;;;;;;;;;;;;;;;25.67;46.51;95112.69;4934860;29;7244;-62
2022/10/28 11:45:03;;;;;;;;;;;;;;;25.68;45.78;95100.44;4924704;29;7003;-61
2022/10/28 11:48:04;;;;;;;;;;;;;;;25.68;45.92;95100.44;4929308;29;7261;-62
2022/10/28 11:51:24;;;;;;;;;;;;;;;25.68;45.86;95101.19;4938595;28;7330;-61
2022/10/28 11:54:25;;;;;;;;;;;;;;;25.68;46.77;95103.97;4935408;29;7037;-61
2022/10/28 11:57:13;;;;;;;;;;;;;;;25.70;46.11;95106.97;4917390;29;7357;-61
2022/10/28 11:59:42;;;;;;;;;;;;;;;25.70;46.32;95101.47;4934628;29;9366;-61
2022/10/28 12:02:10;;;;;;;;;;;;;;;25.71;45.46;95093.97;4935883;28;7421;-61
2022/10/28 12:04:58;;;;;;;;;;;;;;;25.72;45.44;95092.69;4935837;28;8317;-61
2022/10/28 12:07:44;;;;;;;;;;;;;;;25.71;46.21;95083.66;4931745;28;7132;-62
2022/10/28 12:10:32;;;;;;;;;;;;;;;25.74;45.69;95084.69;4958063;28;7338;-61
2022/10/28 12:13:01;;;;;;;;;;;;;;;25.74;45.96;95088.19;4920889;29;7431;-61
2022/10/28 12:15:57;;;;;;;;;;;;;;;25.74;46.24;95077.19;4948278;28;7241;-61
2022/10/28 12:18:40;;;;;;;;;;;;;;;25.76;45.85;95085.69;4948099;28;7373;-61
2022/10/28 12:21:28;;;;;;;;;;;;;;;25.79;46.03;95081.97;4937318;28;8793;-61
2022/10/28 12:23:58;;;;;;;;;;;;;;;25.81;46.47;95078.69;4947949;28;7042;-61
2022/10/28 12:26:36;;;;;;;;;;;;;;;25.81;46.65;95073.19;4974183;28;7630;-61
2022/10/28 12:29:23;;;;;;;;;;;;;;;25.80;46.13;95074.44;4979426;28;8754;-61
2022/10/28 12:32:19;;;;;;;;;;;;;;;25.79;46.21;95068.19;4999034;28;9166;-61
2022/10/28 12:35:03;;;;;;;;;;;;;;;25.74;46.23;95070.91;5050993;28;7000;-63
2022/10/28 12:37:58;;;;;;;;;;;;;;;25.73;46.52;95066.66;5062577;28;6976;-62
2022/10/28 12:41:03;;;;;;;;;;;;;;;25.73;46.03;95059.13;4997228;28;7358;-62
2022/10/28 12:43:37;;;;;;;;;;;;;;;25.76;46.59;95071.16;4955867;28;7254;-62
2022/10/28 12:46:12;;;;;;;;;;;;;;;25.76;45.98;95063.66;4943864;28;9014;-62
2022/10/28 12:48:47;;;;;;;;;;;;;;;25.75;45.75;95061.41;4952259;28;7215;-61
2022/10/28 12:51:30;;;;;;;;;;;;;;;25.75;46.10;95058.66;4936001;28;8547;-61
2022/10/28 12:54:41;;;;;;;;;;;;;;;25.75;45.60;95055.88;4953192;28;7253;-61
2022/10/28 12:57:46;;;;;;;;;;;;;;;25.77;45.72;95059.66;4935922;28;9502;-62
2022/10/28 13:00:24;;;;;;;;;;;;;;;25.77;45.57;95053.41;4934770;29;7318;-62
2022/10/28 13:03:13;;;;;;;;;;;;;;;25.77;45.72;95056.16;4923696;28;9002;-62
2022/10/28 13:05:38;;;;;;;;;;;;;;;25.73;46.49;95063.91;4929250;29;7050;-62
2022/10/28 13:08:37;;;;;;;;;;;;;;;25.78;45.97;95072.19;4933282;28;7160;-62
2022/10/28 13:11:19;;;;;;;;;;;;;;;25.81;45.54;95065.69;4941375;28;7004;-62
2022/10/28 13:14:02;;;;;;;;;;;;;;;25.82;45.73;95060.91;4938227;28;7262;-62
2022/10/28 13:16:41;;;;;;;;;;;;;;;25.85;45.78;95065.44;4939014;28;8493;-62
2022/10/28 13:19:44;;;;;;;;;;;;;;;25.86;45.67;95059.41;5003286;28;9038;-61
2022/10/28 13:22:34;;;;;;;;;;;;;;;25.85;45.62;95059.94;5014035;28;7414;-61
2022/10/28 13:25:17;;;;;;;;;;;;;;;25.85;46.40;95066.19;5028534;28;9335;-61
2022/10/28 13:27:44;;;;;;;;;;;;;;;25.84;46.41;95058.41;5006710;28;7239;-62
2022/10/28 13:30:23;;;;;;;;;;;;;;;25.89;46.24;95054.91;5018763;28;9415;-61
2022/10/28 13:33:08;;;;;;;;;;;;;;;25.89;46.61;95054.91;5008008;28;9283;-62
2022/10/28 13:35:43;;;;;;;;;;;;;;;25.87;46.46;95060.19;5083394;28;6941;-61
2022/10/28 13:38:31;;;;;;;;;;;;;;;25.86;46.53;95064.19;5077290;28;6993;-62
2022/10/28 13:41:24;;;;;;;;;;;;;;;25.84;46.76;95061.91;5067731;28;7454;-61
2022/10/28 13:44:13;;;;;;;;;;;;;;;25.84;47.01;95063.91;5051990;28;7561;-61
2022/10/28 13:46:58;;;;;;;;;;;;;;;25.85;46.52;95071.72;5047571;28;7231;-61
2022/10/28 13:50:02;;;;;;;;;;;;;;;25.85;47.25;95060.69;5051831;28;7024;-61
2022/10/28 13:53:23;;;;;;;;;;;;;;;25.85;46.57;95068.94;5051570;28;8315;-61
2022/10/28 13:55:58;;;;;;;;;;;;;;;25.89;47.07;95066.72;4986237;28;7495;-61
2022/10/28 13:58:26;;;;;;;;;;;;;;;25.87;46.98;95062.94;4985460;28;7105;-61